Fairmont, WV

1:05 AM EDT on July 24, 2017 (GMT -0400)
East Fairmont | | Change Station

Elev 1004 ft 39.48 °N, 80.13 °W | Updated 5 minutes ago

Rain
Rain
67.5 °F
Feels Like 67.5 °F
N
0.0
Wind Variable Wind from South
Gusts 3.0 mph

Today
High -- | Low -- °F
--% Chance of Precip.
Yesterday
High -- | Low -- °F
Precip. -- in
Pressure 29.81 in
Visibility 10.0 miles
Clouds Mostly Cloudy 2400 ft
Mostly Cloudy 3200 ft
Overcast 4800 ft
Dew Point 66 °F
Humidity 95%
Rainfall 0.11 in
Snow Depth Not available.
6:13 AM 8:40 PM
New Moon, 1% visible
METAR KCKB 240453Z 31014G23KT 10SM -RA BKN024 BKN032 OVC048 23/19 A2985 RMK AO2 RAB43 SLP093 P0000 T02280194 402720200
Pressure 29.81 in
Visibility 10.0 miles
Clouds Mostly Cloudy 2400 ft
Mostly Cloudy 3200 ft
Overcast 4800 ft
Dew Point 66 °F
Humidity 95%
Rainfall 0.11 in
Snow Depth Not available.
6:13 AM 8:40 PM
New Moon, 1% visible
METAR KCKB 240453Z 31014G23KT 10SM -RA BKN024 BKN032 OVC048 23/19 A2985 RMK AO2 RAB43 SLP093 P0000 T02280194 402720200

Get Severe Weather Alerts

Thanks for signing up!

Be on the lookout for a verification email in your inbox.

You'll start receiving the daily forecast at 6 AM.

×

10-Day Weather Forecast

Almanac

Astronomy

Jul. 24, 2017 Rise Set
Actual Time
Civil Twilight
Nautical Twilight
Astronomical Twilight
Moon
Length of Visible Light
Length of Day
Tomorrow will be .
, % of the Moon is Illuminated

Today's Extremes

State Highs State Lows

Community

WunderPhotos

Category 6

Welcome to Category 6. This is the collective home for Weather Underground's featured writeups by Dr. Jeff Masters (right), Bob Henson (left), Chris Burt, and other regular contributors.

Nearby

Air Quality

  Air Quality AQ Index Pollutant
Not available.

Snow Depth

Station Depth Elevation

Earthquake Activity

City Distance Mag. Time & Date
Minimum magnitude displayed is 2.5.

Coastal Water Temperatures

Place Temperature

Stations

Nearby Weather Stations

Station Location Temp. Windchill Dew Point Humidity Wind Precip. Elev Updated Type
                   

Watches & Warnings

There are currently no watches in effect.